createdAt,value
2018-09-15T00:00:57.366Z,14.97
2018-09-15T00:06:11.728Z,14.47
2018-09-15T00:08:40.080Z,14.43
2018-09-15T00:11:08.661Z,15.20
2018-09-15T00:13:37.073Z,14.67
2018-09-15T00:16:05.449Z,16.23
2018-09-15T00:18:33.833Z,14.93
2018-09-15T00:21:02.184Z,16.13
2018-09-15T00:23:30.568Z,14.70
2018-09-15T00:25:59.010Z,15.10
2018-09-15T00:31:14.357Z,15.27
2018-09-15T00:33:42.746Z,15.27
2018-09-15T00:36:11.230Z,15.70
2018-09-15T00:38:39.597Z,16.40
2018-09-15T00:41:07.996Z,14.67
2018-09-15T00:43:36.382Z,14.23
2018-09-15T00:46:04.841Z,14.40
2018-09-15T00:48:33.223Z,14.90
2018-09-15T00:51:01.623Z,13.90
2018-09-15T00:53:30.092Z,12.80
2018-09-15T00:55:58.509Z,14.20
2018-09-15T00:58:26.891Z,12.77
2018-09-15T01:00:55.360Z,13.40
2018-09-15T01:03:23.730Z,12.97
2018-09-15T01:05:52.096Z,13.37
2018-09-15T01:08:20.568Z,12.10
2018-09-15T01:10:48.970Z,12.90
2018-09-15T01:13:17.311Z,13.50
2018-09-15T01:15:45.729Z,12.73
2018-09-15T01:18:14.136Z,13.33
2018-09-15T01:20:42.516Z,12.70
2018-09-15T01:23:10.904Z,12.63
2018-09-15T01:25:39.297Z,13.07
2018-09-15T01:28:07.648Z,12.50
2018-09-15T01:30:36.143Z,12.77
2018-09-15T01:33:04.612Z,11.90
2018-09-15T01:35:32.960Z,13.87
2018-09-15T01:38:01.404Z,13.83
2018-09-15T01:40:29.888Z,11.50
2018-09-15T01:42:58.240Z,13.67
2018-09-15T01:45:26.645Z,12.40
2018-09-15T01:47:55.019Z,13.13
2018-09-15T01:50:23.378Z,12.40
2018-09-15T01:52:51.944Z,13.10
2018-09-15T01:55:20.335Z,13.00
2018-09-15T01:57:48.677Z,12.93
2018-09-15T02:00:17.106Z,11.60
2018-09-15T02:02:45.527Z,12.27
2018-09-15T02:05:13.877Z,13.37
2018-09-15T02:07:42.306Z,12.00
2018-09-15T02:10:10.737Z,12.63
2018-09-15T02:15:26.053Z,13.07
2018-09-15T02:17:54.412Z,12.80
2018-09-15T02:20:22.792Z,13.10
2018-09-15T02:22:51.237Z,11.40
2018-09-15T02:25:19.588Z,12.20
2018-09-15T02:27:47.968Z,12.27
2018-09-15T02:30:16.395Z,12.50
2018-09-15T02:32:44.789Z,13.03
2018-09-15T02:35:13.168Z,13.30
2018-09-15T02:37:41.568Z,12.00
2018-09-15T02:40:13.505Z,12.00
2018-09-15T02:42:41.873Z,13.20
2018-09-15T02:45:10.227Z,12.07
2018-09-15T02:47:38.605Z,12.37
2018-09-15T02:50:07.014Z,12.27
2018-09-15T02:52:35.358Z,11.70
2018-09-15T02:55:03.788Z,12.73
2018-09-15T02:57:32.157Z,12.60
2018-09-15T03:00:00.523Z,12.23
2018-09-15T03:02:28.912Z,12.83
2018-09-15T03:04:57.256Z,12.83
2018-09-15T03:07:25.622Z,14.40
2018-09-15T03:09:54.003Z,12.87
2018-09-15T03:12:22.364Z,12.97
2018-09-15T03:14:50.707Z,13.40
2018-09-15T03:17:19.191Z,13.27
2018-09-15T03:19:47.629Z,12.90
2018-09-15T03:22:16.046Z,13.23
2018-09-15T03:24:44.432Z,12.63
2018-09-15T03:27:12.795Z,13.87
2018-09-15T03:29:41.150Z,12.27
2018-09-15T03:32:09.568Z,12.50
2018-09-15T03:34:37.964Z,13.40
2018-09-15T03:37:06.432Z,13.00
2018-09-15T03:39:34.884Z,13.87
2018-09-15T03:42:03.323Z,12.47
2018-09-15T03:44:31.641Z,13.37
2018-09-15T03:47:00.076Z,13.87
2018-09-15T03:49:28.443Z,13.13
2018-09-15T03:51:56.788Z,13.77
2018-09-15T03:54:25.371Z,13.93
2018-09-15T03:56:53.724Z,13.20
2018-09-15T04:02:08.188Z,12.70
2018-09-15T04:04:36.537Z,14.00
2018-09-15T04:07:04.895Z,14.17
2018-09-15T04:09:33.236Z,12.93
2018-09-15T04:12:01.608Z,13.00
2018-09-15T04:14:30.069Z,13.27
2018-09-15T04:16:58.416Z,13.27
2018-09-15T04:19:27.072Z,13.73
2018-09-15T04:21:55.440Z,13.87
2018-09-15T04:24:23.795Z,14.00
2018-09-15T04:26:52.169Z,14.10
2018-09-15T04:29:20.536Z,13.83
2018-09-15T04:31:48.902Z,14.23
2018-09-15T04:34:17.385Z,13.40
2018-09-15T04:36:45.951Z,14.37
2018-09-15T04:39:14.309Z,14.57
2018-09-15T04:41:42.929Z,15.57
2018-09-15T04:44:11.254Z,15.80
2018-09-15T04:46:39.624Z,16.67
2018-09-15T04:49:07.991Z,15.67
2018-09-15T04:51:36.363Z,15.30
2018-09-15T04:54:04.765Z,14.03
2018-09-15T04:59:19.756Z,15.77
2018-09-15T05:10:07.867Z,15.07
2018-09-15T05:12:36.329Z,15.43
2018-09-15T05:15:04.700Z,15.90
2018-09-15T05:17:33.156Z,15.10
2018-09-15T05:20:01.549Z,15.60
2018-09-15T05:22:29.912Z,15.30
2018-09-15T05:24:58.288Z,15.30
2018-09-15T05:27:26.655Z,15.37
2018-09-15T05:29:55.024Z,15.10
2018-09-15T05:32:23.498Z,14.17
2018-09-15T05:34:51.885Z,14.07
2018-09-15T05:37:20.283Z,15.10
2018-09-15T05:39:48.674Z,15.40
2018-09-15T05:42:17.081Z,15.50
2018-09-15T05:44:45.468Z,14.17
2018-09-15T05:47:13.951Z,14.67
2018-09-15T05:49:42.377Z,13.20
2018-09-15T05:52:10.711Z,13.30
2018-09-15T05:54:39.283Z,13.70
2018-09-15T05:57:07.662Z,13.23
2018-09-15T05:59:36.022Z,14.07
2018-09-15T06:02:04.651Z,13.57
2018-09-15T06:10:06.062Z,13.80
2018-09-15T06:12:34.463Z,12.70
2018-09-15T06:15:03.240Z,13.53
2018-09-15T06:17:31.590Z,14.50
2018-09-15T06:20:00.252Z,14.33
2018-09-15T06:22:28.660Z,15.23
2018-09-15T06:24:57.024Z,13.90
2018-09-15T06:27:25.425Z,13.20
2018-09-15T06:29:53.900Z,13.13
2018-09-15T06:32:22.252Z,13.00
2018-09-15T06:34:50.718Z,13.50
2018-09-15T06:37:19.110Z,13.67
2018-09-15T06:39:47.492Z,13.87
2018-09-15T06:42:15.933Z,14.83
2018-09-15T06:44:44.315Z,14.30
2018-09-15T06:47:12.709Z,13.93
2018-09-15T06:49:41.301Z,14.07
2018-09-15T06:52:09.766Z,13.00
2018-09-15T06:54:38.258Z,14.30
2018-09-15T06:57:06.662Z,13.83
2018-09-15T06:59:35.047Z,13.77
2018-09-15T07:02:03.484Z,12.87
2018-09-15T07:04:31.917Z,13.40
2018-09-15T07:07:00.292Z,13.50
2018-09-15T07:09:28.676Z,13.70
2018-09-15T07:11:57.069Z,13.07
2018-09-15T07:14:25.434Z,12.17
2018-09-15T07:16:53.815Z,12.80
2018-09-15T07:19:22.241Z,12.90
2018-09-15T07:21:50.604Z,12.50
2018-09-15T07:24:18.959Z,12.43
2018-09-15T07:26:47.337Z,14.47
2018-09-15T07:29:15.712Z,14.00
2018-09-15T07:31:44.143Z,13.60
2018-09-15T07:34:12.532Z,13.07
2018-09-15T07:36:40.974Z,13.63
2018-09-15T07:39:10.078Z,15.17
2018-09-15T07:41:38.554Z,14.60
2018-09-15T07:44:07.128Z,13.57
2018-09-15T07:46:35.496Z,15.57
2018-09-15T07:49:03.948Z,15.17
2018-09-15T07:51:32.387Z,13.83
2018-09-15T07:54:00.707Z,15.27
2018-09-15T07:56:29.092Z,14.07
2018-09-15T07:58:57.512Z,15.63
2018-09-15T08:01:25.882Z,14.80
2018-09-15T08:03:54.444Z,14.30
2018-09-15T08:06:22.844Z,16.37
2018-09-15T08:08:51.298Z,15.10
2018-09-15T08:11:19.692Z,14.90
2018-09-15T08:13:48.077Z,14.07
2018-09-15T08:16:16.436Z,15.33
2018-09-15T08:18:44.836Z,14.20
2018-09-15T08:21:14.201Z,14.37
2018-09-15T08:23:42.576Z,13.13
2018-09-15T08:26:11.089Z,13.83
2018-09-15T08:28:39.410Z,14.60
2018-09-15T08:31:07.788Z,15.50
2018-09-15T08:33:36.150Z,13.20
2018-09-15T08:36:04.500Z,13.83
2018-09-15T08:38:33.000Z,14.60
2018-09-15T08:41:01.403Z,14.50
2018-09-15T08:43:29.779Z,15.43
2018-09-15T08:45:58.196Z,15.20
2018-09-15T08:48:26.647Z,16.03
2018-09-15T08:50:54.976Z,14.23
2018-09-15T08:53:23.348Z,15.00
2018-09-15T08:55:51.813Z,15.97
2018-09-15T08:58:20.257Z,15.60
2018-09-15T09:00:48.624Z,13.43
2018-09-15T09:03:16.984Z,13.43
2018-09-15T09:05:45.419Z,13.43
2018-09-15T09:08:13.808Z,14.97
2018-09-15T09:10:42.186Z,14.10
2018-09-15T09:13:10.580Z,12.60
2018-09-15T09:15:38.947Z,13.87
2018-09-15T09:18:07.332Z,12.47
2018-09-15T09:20:35.734Z,11.60
2018-09-15T09:23:04.112Z,11.47
2018-09-15T09:25:32.524Z,13.03
2018-09-15T09:28:00.937Z,11.13
2018-09-15T09:30:29.333Z,12.77
2018-09-15T09:32:57.727Z,11.63
2018-09-15T09:35:26.725Z,9.47
2018-09-15T09:37:55.108Z,11.40
2018-09-15T09:40:23.465Z,11.10
2018-09-15T09:42:51.900Z,10.60
2018-09-15T09:45:20.264Z,9.20
2018-09-15T09:47:49.193Z,11.17
2018-09-15T09:50:17.538Z,11.20
2018-09-15T09:52:46.497Z,10.50
2018-09-15T09:55:14.883Z,10.83
2018-09-15T09:57:43.264Z,9.47
2018-09-15T10:00:15.908Z,9.40
2018-09-15T10:02:44.302Z,11.80
2018-09-15T10:05:12.657Z,9.17
2018-09-15T10:07:41.069Z,10.90
2018-09-15T10:10:09.451Z,10.73
2018-09-15T10:12:37.831Z,10.40
2018-09-15T10:15:06.180Z,10.77
2018-09-15T10:17:34.581Z,9.73
2018-09-15T10:20:03.003Z,10.03
2018-09-15T10:22:31.364Z,9.20
2018-09-15T10:24:59.769Z,9.07
2018-09-15T10:27:28.149Z,9.40
2018-09-15T10:29:56.496Z,8.93
2018-09-15T10:32:24.872Z,9.17
2018-09-15T10:34:53.313Z,9.13
2018-09-15T10:37:21.664Z,8.60
2018-09-15T10:39:50.041Z,9.63
2018-09-15T10:42:18.438Z,9.27
2018-09-15T10:44:46.785Z,8.60
2018-09-15T10:47:15.350Z,9.27
2018-09-15T10:49:43.729Z,9.03
2018-09-15T10:52:12.162Z,8.60
2018-09-15T10:54:40.485Z,8.07
2018-09-15T10:57:08.895Z,7.80
2018-09-15T10:59:37.274Z,7.87
2018-09-15T11:02:05.790Z,8.53
2018-09-15T11:04:34.176Z,8.70
2018-09-15T11:07:02.585Z,8.93
2018-09-15T11:09:30.961Z,8.07
2018-09-15T11:11:59.486Z,8.03
2018-09-15T11:14:27.849Z,8.23
2018-09-15T11:16:56.226Z,7.63
2018-09-15T11:19:24.596Z,8.00
2018-09-15T11:21:52.976Z,8.30
2018-09-15T11:24:21.330Z,8.00
2018-09-15T11:26:49.732Z,7.90
2018-09-15T11:32:05.225Z,5.80
2018-09-15T11:34:33.576Z,6.23
2018-09-15T11:37:01.977Z,5.90
2018-09-15T11:39:30.336Z,5.60
2018-09-15T11:41:58.749Z,5.37
2018-09-15T11:44:27.124Z,5.60
2018-09-15T11:46:55.544Z,6.07
2018-09-15T11:49:23.893Z,5.97
2018-09-15T11:51:52.244Z,6.00
2018-09-15T11:54:20.677Z,5.77
2018-09-15T11:56:49.025Z,6.10
2018-09-15T11:59:17.425Z,7.10
2018-09-15T12:01:46.117Z,5.97
2018-09-15T12:04:14.484Z,5.00
2018-09-15T12:06:42.844Z,5.20
2018-09-15T12:09:11.205Z,5.70
2018-09-15T12:11:39.594Z,5.30
2018-09-15T12:14:08.003Z,4.90
2018-09-15T12:16:36.319Z,4.70
2018-09-15T12:19:04.700Z,4.70
2018-09-15T12:21:33.095Z,5.20
2018-09-15T12:24:01.590Z,5.40
2018-09-15T12:26:29.965Z,5.97
2018-09-15T12:28:58.377Z,4.70
2018-09-15T12:31:26.787Z,5.43
2018-09-15T12:33:55.143Z,5.00
2018-09-15T12:36:23.827Z,5.33
2018-09-15T12:38:52.501Z,5.10
2018-09-15T12:41:20.896Z,5.03
2018-09-15T12:43:49.260Z,5.20
2018-09-15T12:46:17.664Z,4.90
2018-09-15T12:48:46.109Z,4.37
2018-09-15T12:51:14.742Z,5.00
2018-09-15T12:53:43.494Z,4.53
2018-09-15T12:56:11.842Z,4.40
2018-09-15T12:58:40.188Z,4.03
2018-09-15T13:01:08.576Z,4.40
2018-09-15T13:03:37.931Z,3.77
2018-09-15T13:06:06.032Z,3.80
2018-09-15T13:08:34.572Z,3.80
2018-09-15T13:11:02.996Z,3.63
2018-09-15T13:13:31.360Z,3.67
2018-09-15T13:15:59.819Z,3.80
2018-09-15T13:18:28.193Z,4.17
2018-09-15T13:20:56.560Z,3.87
2018-09-15T13:23:25.076Z,3.20
2018-09-15T13:25:53.448Z,3.50
2018-09-15T13:28:21.848Z,3.50
2018-09-15T13:30:50.560Z,3.40
2018-09-15T13:33:18.978Z,3.53
2018-09-15T13:35:47.364Z,3.70
2018-09-15T13:38:15.752Z,3.57
2018-09-15T13:40:44.120Z,3.50
2018-09-15T13:43:12.515Z,3.23
2018-09-15T13:45:40.971Z,3.40
2018-09-15T13:48:09.346Z,3.00
2018-09-15T13:50:37.700Z,3.40
2018-09-15T13:53:06.139Z,3.40
2018-09-15T13:55:34.478Z,3.33
2018-09-15T13:58:02.860Z,3.80
2018-09-15T14:00:31.243Z,3.80
2018-09-15T14:02:59.628Z,3.20
2018-09-15T14:05:27.974Z,3.53
2018-09-15T14:07:56.328Z,3.43
2018-09-15T14:10:24.684Z,3.60
2018-09-15T14:15:39.904Z,2.70
2018-09-15T14:18:08.244Z,3.27
2018-09-15T14:20:36.689Z,4.00
2018-09-15T14:23:05.051Z,3.50
2018-09-15T14:25:33.467Z,3.30
2018-09-15T14:28:01.858Z,5.50
2018-09-15T14:30:30.223Z,4.20
2018-09-15T14:32:58.677Z,3.53
2018-09-15T14:35:27.092Z,4.40
2018-09-15T14:37:55.490Z,4.97
2018-09-15T14:40:23.965Z,4.30
2018-09-15T14:42:52.563Z,4.30
2018-09-15T14:45:20.916Z,4.20
2018-09-15T14:47:49.274Z,3.60
2018-09-15T14:50:17.682Z,3.90
2018-09-15T14:52:46.048Z,3.83
2018-09-15T14:55:14.579Z,3.50
2018-09-15T14:57:42.940Z,4.27
2018-09-15T15:00:11.317Z,4.17
2018-09-15T15:02:39.836Z,3.73
2018-09-15T15:05:08.327Z,3.97
2018-09-15T15:07:36.837Z,3.40
2018-09-15T15:10:05.243Z,3.77
2018-09-15T15:12:33.684Z,3.60
2018-09-15T15:15:02.064Z,3.70
2018-09-15T15:17:30.453Z,3.70
2018-09-15T15:19:58.829Z,4.27
2018-09-15T15:22:27.190Z,3.93
2018-09-15T15:24:55.643Z,3.53
2018-09-15T15:27:24.039Z,4.13
2018-09-15T15:29:52.400Z,3.70
2018-09-15T15:32:20.820Z,4.60
2018-09-15T15:34:49.236Z,4.10
2018-09-15T15:37:17.628Z,4.60
2018-09-15T15:39:46.041Z,3.70
2018-09-15T15:42:14.501Z,4.10
2018-09-15T15:44:42.813Z,4.40
2018-09-15T15:47:11.268Z,4.87
2018-09-15T15:49:39.700Z,4.10
2018-09-15T15:52:08.122Z,4.00
2018-09-15T15:54:36.608Z,3.80
2018-09-15T15:57:05.032Z,4.37
2018-09-15T15:59:33.508Z,4.40
2018-09-15T16:02:01.879Z,3.77
2018-09-15T16:04:30.367Z,4.40
2018-09-15T16:06:58.694Z,3.90
2018-09-15T16:09:27.085Z,4.77
2018-09-15T16:11:55.471Z,4.60
2018-09-15T16:14:23.867Z,4.27
2018-09-15T16:16:52.240Z,4.30
2018-09-15T16:19:20.672Z,3.70
2018-09-15T16:21:49.060Z,3.37
2018-09-15T16:24:17.460Z,4.13
2018-09-15T16:26:45.837Z,3.80
2018-09-15T16:29:14.236Z,4.00
2018-09-15T16:31:42.635Z,3.67
2018-09-15T16:34:11.095Z,3.63
2018-09-15T16:36:39.492Z,3.70
2018-09-15T16:39:08.932Z,3.70
2018-09-15T16:47:10.785Z,4.23
2018-09-15T16:49:39.162Z,4.40
2018-09-15T16:52:07.535Z,4.00
2018-09-15T16:54:35.913Z,4.00
2018-09-15T16:57:04.344Z,4.37
2018-09-15T16:59:32.724Z,4.30
2018-09-15T17:02:01.093Z,4.10
2018-09-15T17:04:29.508Z,3.90
2018-09-15T17:06:57.916Z,3.80
2018-09-15T17:09:26.360Z,3.90
2018-09-15T17:14:41.112Z,4.03
2018-09-15T17:17:09.618Z,4.43
2018-09-15T17:19:38.193Z,4.20
2018-09-15T17:22:06.562Z,3.77
2018-09-15T17:24:35.009Z,3.40
2018-09-15T17:27:03.385Z,3.90
2018-09-15T17:29:31.758Z,4.17
2018-09-15T17:32:00.161Z,4.43
2018-09-15T17:34:28.555Z,3.83
2018-09-15T17:36:56.969Z,3.93
2018-09-15T17:39:25.325Z,4.30
2018-09-15T17:41:53.716Z,3.80
2018-09-15T17:44:22.069Z,3.60
2018-09-15T17:46:50.472Z,4.10
2018-09-15T17:49:18.824Z,4.00
2018-09-15T17:51:47.169Z,4.27
2018-09-15T17:54:15.609Z,3.97
2018-09-15T17:56:44.023Z,4.60
2018-09-15T18:01:59.465Z,4.47
2018-09-15T18:04:27.890Z,4.27
2018-09-15T18:06:56.285Z,4.27
2018-09-15T18:09:24.742Z,4.27
2018-09-15T18:11:53.068Z,4.30
2018-09-15T18:14:21.464Z,4.53
2018-09-15T18:16:49.860Z,4.07
2018-09-15T18:19:18.277Z,4.93
2018-09-15T18:21:46.675Z,4.60
2018-09-15T18:24:15.081Z,5.07
2018-09-15T18:29:30.442Z,3.90
2018-09-15T18:34:45.544Z,4.33
2018-09-15T18:37:13.923Z,4.40
2018-09-15T18:39:42.534Z,5.27
2018-09-15T18:42:10.941Z,5.17
2018-09-15T18:44:39.725Z,4.27
2018-09-15T18:47:08.701Z,4.60
2018-09-15T18:49:37.509Z,4.83
2018-09-15T18:52:06.305Z,5.23
2018-09-15T18:54:34.762Z,5.10
2018-09-15T18:57:03.340Z,5.03
2018-09-15T18:59:31.716Z,5.17
2018-09-15T19:02:00.106Z,5.20
2018-09-15T19:04:28.515Z,5.37
2018-09-15T19:06:56.892Z,5.50
2018-09-15T19:09:25.286Z,5.53
2018-09-15T19:14:40.300Z,4.87
2018-09-15T19:17:08.899Z,5.27
2018-09-15T19:19:37.334Z,6.10
2018-09-15T19:22:05.768Z,7.20
2018-09-15T19:24:41.964Z,6.93
2018-09-15T19:27:10.424Z,9.73
2018-09-15T19:29:38.794Z,8.23
2018-09-15T19:32:07.180Z,9.47
2018-09-15T19:34:35.605Z,8.03
2018-09-15T19:37:03.968Z,7.97
2018-09-15T19:39:32.327Z,8.70
2018-09-15T19:42:00.767Z,7.33
2018-09-15T19:44:29.164Z,8.07
2018-09-15T19:46:57.579Z,8.70
2018-09-15T19:49:25.963Z,9.47
2018-09-15T19:51:54.338Z,10.00
2018-09-15T19:54:22.769Z,10.80
2018-09-15T19:56:51.207Z,9.80
2018-09-15T19:59:19.719Z,10.60
2018-09-15T20:01:49.049Z,10.70
2018-09-15T20:04:17.478Z,10.63
2018-09-15T20:06:45.945Z,11.23
2018-09-15T20:09:14.347Z,10.93
2018-09-15T20:11:42.854Z,10.60
2018-09-15T20:14:11.274Z,11.83
2018-09-15T20:16:39.074Z,11.20
2018-09-15T20:19:06.906Z,10.20
2018-09-15T20:21:34.622Z,10.97
2018-09-15T20:24:03.071Z,11.57
2018-09-15T20:26:31.499Z,11.60
2018-09-15T20:28:59.881Z,11.33
2018-09-15T20:31:28.281Z,10.50
2018-09-15T20:33:56.658Z,9.80
2018-09-15T20:36:25.048Z,9.80
2018-09-15T20:38:53.430Z,10.33
2018-09-15T20:41:21.816Z,11.50
2018-09-15T20:43:50.227Z,10.70
2018-09-15T20:46:18.650Z,11.07
2018-09-15T20:48:47.026Z,11.37
2018-09-15T20:51:15.429Z,10.70
2018-09-15T20:53:43.889Z,11.80
2018-09-15T20:56:12.265Z,12.37
2018-09-15T20:58:40.681Z,12.33
2018-09-15T21:01:09.088Z,11.77
2018-09-15T21:03:37.461Z,13.10
2018-09-15T21:06:06.333Z,12.40
2018-09-15T21:08:34.971Z,11.90
2018-09-15T21:11:03.358Z,12.40
2018-09-15T21:13:31.736Z,12.80
2018-09-15T21:16:00.209Z,12.10
2018-09-15T21:18:28.564Z,13.23
2018-09-15T21:20:56.934Z,12.60
2018-09-15T21:23:25.320Z,13.40
2018-09-15T21:25:53.747Z,12.73
2018-09-15T21:28:22.124Z,12.37
2018-09-15T21:30:50.649Z,11.80
2018-09-15T21:33:19.036Z,12.23
2018-09-15T21:35:47.426Z,11.67
2018-09-15T21:38:15.806Z,11.63
2018-09-15T21:40:44.202Z,11.87
2018-09-15T21:43:12.612Z,11.67
2018-09-15T21:45:41.012Z,12.47
2018-09-15T21:48:09.416Z,13.30
2018-09-15T21:50:37.788Z,12.30
2018-09-15T21:53:06.216Z,11.73
2018-09-15T21:55:34.652Z,12.53
2018-09-15T21:58:03.053Z,12.80
2018-09-15T22:00:31.471Z,12.80
2018-09-15T22:02:59.896Z,13.47
2018-09-15T22:05:28.288Z,13.90
2018-09-15T22:07:56.731Z,12.67
2018-09-15T22:10:25.144Z,13.53
2018-09-15T22:12:53.515Z,12.60
2018-09-15T22:15:28.328Z,13.17
2018-09-15T22:17:58.029Z,13.60
2018-09-15T22:20:26.729Z,13.50
2018-09-15T22:22:55.128Z,13.13
2018-09-15T22:25:23.552Z,13.93
2018-09-15T22:27:51.940Z,13.30
2018-09-15T22:30:20.332Z,14.20
2018-09-15T22:32:48.716Z,12.80
2018-09-15T22:35:17.111Z,13.47
2018-09-15T22:37:45.503Z,13.63
2018-09-15T22:40:13.913Z,14.03
2018-09-15T22:42:42.293Z,13.53
2018-09-15T22:45:10.679Z,13.37
2018-09-15T22:47:39.052Z,13.50
2018-09-15T22:50:07.531Z,13.43
2018-09-15T22:52:36.004Z,13.57
2018-09-15T22:55:04.833Z,13.37
2018-09-15T22:57:33.840Z,13.10
2018-09-15T23:00:02.265Z,14.30
2018-09-15T23:02:30.674Z,13.67
2018-09-15T23:04:59.061Z,13.87
2018-09-15T23:07:27.502Z,13.03
2018-09-15T23:09:55.921Z,14.30
2018-09-15T23:12:24.317Z,12.80
2018-09-15T23:14:52.727Z,14.00
2018-09-15T23:17:21.125Z,14.70
2018-09-15T23:19:49.514Z,14.60
2018-09-15T23:22:17.893Z,14.37
2018-09-15T23:24:46.289Z,13.80
2018-09-15T23:27:14.710Z,13.80
2018-09-15T23:29:43.106Z,14.17
2018-09-15T23:32:11.473Z,13.07
2018-09-15T23:34:39.872Z,13.67
2018-09-15T23:37:08.258Z,13.03
2018-09-15T23:39:36.632Z,13.10
2018-09-15T23:42:05.044Z,12.53
2018-09-15T23:44:33.547Z,12.87
2018-09-15T23:47:01.908Z,13.30
2018-09-15T23:49:30.287Z,13.80
2018-09-15T23:51:58.665Z,12.90
2018-09-15T23:54:27.037Z,14.23
2018-09-15T23:56:55.413Z,11.70
2018-09-15T23:59:23.814Z,13.20
